Airfield :
LOGIN :

Register | Disclaimer

   EN    FR    IT 

 










Legend :    VFR   Marginal VFR   IFR   Intensive IFR   Very Intensive IFR
Visi :
Ceiling :
>= 8 km
>= 3000ft
5 to 8 km
1000 to 3000 ft
1500m to 5 km
500 to 1000 ft
800 to 1500m
200 to 500 ft
< 800m
< 200 ft
Symbols :   Thunderstorms  Fog  Heavy snow  Heavy precipitations  Wind > 20 kt
SIGMETs :     Misc.  Thunderstorms  Icing  Turbulence  Mountain Waves  Volcanic Ashes






- Airport Elevation : 257 ft
- IATA code : MAN


EGCC - Manchester

CURRENT METAR :
  • 211450Z AUTO 03006KT 360V080 9999 NCD 13/M00 Q1031 NOSIG

EXPIRED METARs :
  • 211420Z AUTO 03011KT 9999 NCD 12/M00 Q1032 NOSIG
  • 211350Z AUTO 03009KT 9999 NCD 12/M01 Q1032 NOSIG
  • 211250Z AUTO 03009KT 330V060 9999 NCD 12/M01 Q1032 NOSIG
  • 211220Z AUTO 01008KT 340V040 9999 NCD 12/M00 Q1032
  • 211150Z AUTO 02007KT 350V050 9999 NCD 11/M00 Q1032
  • 211120Z AUTO 02006KT 340V060 9999 NCD 11/00 Q1032
  • 211050Z AUTO 08006KT 040V160 9999 NCD 10/00 Q1032
  • 211020Z AUTO 05005KT 010V110 9999 FEW036 10/01 Q1032

TAF TAF EGCC
Valid from the 21 at 12:00 until the 22 at 18:00 UTC


211058Z 2112/2218 07005KT 9999 BKN025
BECMG 2201/2204 BKN014
TEMPO 2204/2212 4500 RADZ BR BKN007
PROB30
TEMPO 2204/2210 +RADZ BKN004
PROB30
TEMPO 2212/2215 6000 -RADZ BKN007
ATIS : +44 161 499 2324



MET'MAP, your aeronautical weather chart ! - Copyright ORBIFLY December 2007 - Disclaimer

ORBIFLY MET'MAP TEAM :

Programming & Development : Alexandra Zaïnal
Original concept : Baudouin d'Aumeries
Technical & hardware support : Manuel Goepfert
Assistance : Marc-Olivier Méhu




SOURCES & CREDITS :

   NOAA